ZM-0024 weather

Majuaneti Airport
Majuaneti, Lusaka Province, Zambia

Public forecast

Using degrees Celsius for public forecast. Weather courtesy of forecast.io.

METAR (pilot weather report)

Report is more than 6 hours old.

Closest report is Kariba International Airport, 36.4 nm (67.5 km) S. Retrieved 2019/09/14 12:00 UTC (17 hours ago):

FVKB 141200Z 29005KT CAVOK 35/13 Q1011 NOSIG

TAF (pilot weather forecast)

Forecast is more than 12 hours old.

Closest forecast is Royal Zambesi Lodge Airstrip, 27.8 nm (51.6 km) ENE. Retrieved 2019/09/13 00:00 UTC (2 days ago):

TAF FLRZ 132200Z 1400/1506 VRB03KT CAVOK BECMG 1405/1408 09005KT 8000 HZ SKC BECMG 1409/1412 13010KT